Salt Wells, Nevada
Current Conditions -  °F | °C
As of 10:56 PM on Wednesday 17 Dec 2014 (Local Time) from KNFL Reporting Station
Overcast Overcast  
Wind Chill:   Ceiling: 5000
Heat Index:   Visibility: 10mi
Dew Point: -2°   Wind: 0mph
Humidity: 70%   Direction: NA
Pressure: 30.04"   Gusts: NA
Location:  39.5809°N, 118.333°W
Report Text: KNFL 180656Z AUTO 00000KT 10SM BKN050 OVC075 03/M02 A3004 RMK AO2 SLP141 T00281022
Loading
Personal Weather Stations






























Interactive Weather Map New forecast layout! Learn more

10-Day Weather Forecast

Advertisements
Track Severe Weather on mobile